Time;durP1;ratioP1;P1;durP2;ratioP2;P2;SDS_P1;SDS_P2;PMS_P1;PMS_P2;Temp;Humidity;BMP_temperature;BMP_pressure;BME280_temperature;BME280_humidity;BME280_pressure;Samples;Min_cycle;Max_cycle;Signal;HPM_P1;HPM_P2
2023/12/04 00:01:21;;;;;;;15.65;5.72;;;1.30;99.90;;;;;;4924615;29;20031;-91
2023/12/04 00:03:47;;;;;;;25.55;7.75;;;1.30;99.90;;;;;;4937782;29;20040;-96
2023/12/04 00:06:14;;;;;;;7.82;3.95;;;1.30;99.90;;;;;;4932815;29;20104;-94
2023/12/04 00:08:40;;;;;;;32.05;9.48;;;1.30;99.90;;;;;;4937575;29;20052;-92
2023/12/04 00:11:07;;;;;;;23.30;6.57;;;1.30;99.90;;;;;;4922379;29;20052;-93
2023/12/04 00:13:33;;;;;;;12.23;4.72;;;1.30;99.90;;;;;;4918737;29;20032;-95
2023/12/04 00:15:59;;;;;;;15.65;4.95;;;1.40;99.90;;;;;;4915344;29;20039;-93
2023/12/04 00:18:25;;;;;;;44.97;9.60;;;1.40;99.90;;;;;;4922987;29;20039;-87
2023/12/04 00:20:51;;;;;;;12.48;3.83;;;1.30;99.90;;;;;;4925031;29;20020;-92
2023/12/04 00:23:16;;;;;;;7.38;3.28;;;1.30;99.90;;;;;;4924918;29;20024;-95
2023/12/04 00:25:42;;;;;;;6.30;3.70;;;1.30;99.90;;;;;;4924898;29;20028;-94
2023/12/04 00:28:08;;;;;;;6.20;2.75;;;1.30;99.90;;;;;;4924801;29;20016;-93
2023/12/04 00:30:33;;;;;;;4.65;2.78;;;1.30;99.90;;;;;;4924152;29;20060;-93
2023/12/04 00:32:59;;;;;;;5.35;2.80;;;1.30;99.90;;;;;;4924816;29;20095;-89
2023/12/04 00:35:25;;;;;;;6.05;3.78;;;1.30;99.90;;;;;;4925276;29;20032;-88
2023/12/04 00:37:50;;;;;;;4.05;2.80;;;1.30;99.90;;;;;;4925573;29;20024;-86
2023/12/04 00:40:16;;;;;;;4.65;2.75;;;1.30;99.90;;;;;;4925712;29;20031;-86
2023/12/04 00:42:43;;;;;;;5.70;3.20;;;1.30;99.90;;;;;;4925629;29;20023;-85
2023/12/04 00:45:09;;;;;;;5.90;3.05;;;1.30;99.90;;;;;;4925411;29;20100;-92
2023/12/04 00:47:35;;;;;;;5.57;2.97;;;1.30;99.90;;;;;;4925348;29;20024;-88
2023/12/04 00:50:02;;;;;;;3.08;2.08;;;1.30;99.90;;;;;;4924219;29;20032;-89
2023/12/04 00:52:28;;;;;;;5.43;2.45;;;1.30;99.90;;;;;;4940857;29;20021;-87
2023/12/04 00:54:54;;;;;;;3.67;2.28;;;1.30;99.90;;;;;;4925298;29;20044;-86
2023/12/04 00:57:21;;;;;;;3.83;2.60;;;1.30;99.90;;;;;;4925249;29;20043;-86
2023/12/04 00:59:49;;;;;;;4.35;2.50;;;1.30;99.90;;;;;;4940994;29;20024;-94
2023/12/04 01:02:15;;;;;;;5.53;2.83;;;1.30;99.90;;;;;;4925013;29;20012;-89
2023/12/04 01:04:43;;;;;;;3.88;2.05;;;1.30;99.90;;;;;;4924974;29;20027;-88
2023/12/04 01:07:09;;;;;;;3.20;1.90;;;1.40;99.90;;;;;;4956551;28;20020;-87
2023/12/04 01:09:35;;;;;;;7.07;2.72;;;1.40;99.90;;;;;;4924680;29;20052;-86
2023/12/04 01:12:01;;;;;;;6.10;2.78;;;1.40;99.90;;;;;;4924269;29;20103;-87
2023/12/04 01:14:27;;;;;;;5.63;2.13;;;1.40;99.90;;;;;;4924687;29;20032;-87
2023/12/04 01:16:55;;;;;;;2.80;1.73;;;1.40;99.90;;;;;;4924717;29;20084;-94
2023/12/04 01:19:20;;;;;;;2.63;1.83;;;1.40;99.90;;;;;;4924257;29;20021;-92
2023/12/04 01:21:46;;;;;;;3.63;1.70;;;1.30;99.90;;;;;;4924610;29;20027;-96
2023/12/04 01:24:17;;;;;;;2.42;1.83;;;1.40;99.90;;;;;;4956377;28;20024;-93
2023/12/04 01:26:43;;;;;;;2.38;1.70;;;1.40;99.90;;;;;;4924891;29;20091;-92
2023/12/04 01:29:12;;;;;;;5.47;2.72;;;1.40;99.90;;;;;;4925073;29;20028;-87
2023/12/04 01:31:38;;;;;;;4.18;2.40;;;1.40;99.90;;;;;;4940466;29;20028;-87
2023/12/04 01:34:06;;;;;;;4.10;2.47;;;1.40;99.90;;;;;;4925202;29;20043;-87
2023/12/04 01:36:32;;;;;;;3.88;2.28;;;1.50;99.90;;;;;;4924976;29;20039;-88
2023/12/04 01:38:57;;;;;;;3.78;2.40;;;1.40;99.90;;;;;;4924446;29;20025;-88
2023/12/04 01:41:24;;;;;;;3.63;2.10;;;1.50;99.90;;;;;;4956070;28;20017;-88
2023/12/04 01:43:50;;;;;;;3.22;1.98;;;1.50;99.90;;;;;;4941397;29;20040;-88
2023/12/04 01:46:17;;;;;;;3.22;2.05;;;1.40;99.90;;;;;;4940490;29;20084;-89
2023/12/04 01:48:47;;;;;;;4.05;1.98;;;1.50;99.90;;;;;;4924304;29;20095;-88
2023/12/04 01:51:16;;;;;;;5.27;2.20;;;1.50;99.90;;;;;;4939054;29;20033;-90
2023/12/04 01:53:46;;;;;;;3.55;1.60;;;1.40;99.90;;;;;;4939483;29;20044;-92
2023/12/04 01:56:16;;;;;;;2.50;1.90;;;1.50;99.90;;;;;;4940783;29;20028;-95
2023/12/04 01:58:45;;;;;;;2.60;1.98;;;1.50;99.90;;;;;;4956162;28;20352;-88
2023/12/04 02:01:11;;;;;;;3.40;2.05;;;1.40;99.90;;;;;;4924549;29;20013;-88
2023/12/04 02:03:38;;;;;;;3.78;2.28;;;1.40;99.90;;;;;;4940573;29;20059;-89
2023/12/04 02:06:10;;;;;;;3.30;1.90;;;1.40;99.90;;;;;;4924608;29;20052;-89
2023/12/04 02:08:41;;;;;;;3.30;2.00;;;1.50;99.90;;;;;;4940582;29;20083;-93
2023/12/04 02:11:06;;;;;;;3.38;2.20;;;1.50;99.90;;;;;;4911779;29;20099;-95
2023/12/04 02:13:33;;;;;;;3.70;2.28;;;1.50;99.90;;;;;;4914899;29;20036;-95
2023/12/04 02:16:03;;;;;;;5.20;2.75;;;1.50;99.90;;;;;;4942746;29;20047;-94
2023/12/04 02:18:29;;;;;;;3.22;2.03;;;1.50;99.90;;;;;;4912831;29;20020;-95
2023/12/04 02:20:54;;;;;;;3.40;1.88;;;1.50;99.90;;;;;;4910479;29;20043;-96
2023/12/04 02:23:23;;;;;;;3.65;2.20;;;1.50;99.90;;;;;;4905064;29;20047;-94
2023/12/04 02:25:49;;;;;;;3.42;2.20;;;1.50;99.90;;;;;;4909227;29;20032;-93
2023/12/04 02:28:18;;;;;;;3.20;2.08;;;1.50;99.90;;;;;;4919180;29;20119;-94
2023/12/04 02:30:45;;;;;;;4.05;2.15;;;1.50;99.90;;;;;;4912123;29;20028;-95
2023/12/04 02:33:13;;;;;;;4.60;2.58;;;1.50;99.90;;;;;;4900408;29;20024;-96
2023/12/04 02:35:41;;;;;;;4.90;2.80;;;1.50;99.90;;;;;;4914282;29;20028;-96
2023/12/04 02:38:08;;;;;;;4.47;2.47;;;1.60;99.90;;;;;;4915625;29;20052;-94
2023/12/04 02:40:34;;;;;;;5.10;2.90;;;1.50;99.90;;;;;;4911556;29;20036;-95
2023/12/04 02:43:00;;;;;;;4.57;2.50;;;1.60;99.90;;;;;;4904620;29;20024;-95
2023/12/04 02:45:27;;;;;;;5.55;2.63;;;1.60;99.90;;;;;;4907128;29;20076;-96
2023/12/04 02:47:53;;;;;;;4.43;2.80;;;1.60;99.90;;;;;;4908937;29;20039;-95
2023/12/04 02:50:18;;;;;;;5.88;3.20;;;1.60;99.90;;;;;;4908455;29;20092;-93
2023/12/04 02:52:45;;;;;;;4.85;3.03;;;1.60;99.90;;;;;;4911000;29;20032;-95
2023/12/04 02:55:12;;;;;;;5.95;2.88;;;1.60;99.90;;;;;;4916329;29;20163;-94
2023/12/04 02:57:38;;;;;;;5.07;2.63;;;1.70;99.90;;;;;;4926465;29;20053;-95
2023/12/04 03:00:04;;;;;;;5.75;3.40;;;1.70;99.90;;;;;;4927222;29;20024;-94
2023/12/04 03:02:30;;;;;;;4.70;2.33;;;1.70;99.90;;;;;;4926941;29;20043;-94
2023/12/04 03:04:55;;;;;;;3.15;1.88;;;1.70;99.90;;;;;;4927023;29;20020;-91
2023/12/04 03:07:23;;;;;;;4.75;2.53;;;1.70;99.90;;;;;;4926420;29;20076;-92
2023/12/04 03:09:49;;;;;;;2.83;1.80;;;1.70;99.90;;;;;;4925999;29;20147;-95
2023/12/04 03:12:15;;;;;;;3.67;2.08;;;1.70;99.90;;;;;;4926627;29;20040;-94
2023/12/04 03:14:40;;;;;;;3.47;2.33;;;1.80;99.90;;;;;;4957646;28;20036;-95
2023/12/04 03:17:06;;;;;;;4.55;2.03;;;1.70;99.90;;;;;;4924128;29;20041;-96
2023/12/04 03:19:32;;;;;;;3.35;1.90;;;1.80;99.90;;;;;;4925738;29;20036;-96
2023/12/04 03:22:01;;;;;;;2.80;1.70;;;1.80;99.90;;;;;;4935936;28;20022;-92
2023/12/04 03:24:26;;;;;;;3.28;1.75;;;1.80;99.90;;;;;;4925099;29;20071;-93
2023/12/04 03:26:52;;;;;;;4.55;2.05;;;1.80;99.90;;;;;;4926060;29;20028;-89
2023/12/04 03:29:18;;;;;;;2.17;1.52;;;1.80;99.90;;;;;;4920221;29;20032;-94
2023/12/04 03:31:45;;;;;;;3.15;1.60;;;1.80;99.90;;;;;;4912507;29;20040;-94
2023/12/04 03:34:11;;;;;;;2.10;1.30;;;1.80;99.90;;;;;;4909966;29;20036;-94
2023/12/04 03:36:36;;;;;;;2.92;1.60;;;1.80;99.90;;;;;;4909304;29;20052;-94
2023/12/04 03:39:02;;;;;;;2.33;1.55;;;1.80;99.90;;;;;;4942886;29;20036;-95
2023/12/04 03:41:28;;;;;;;2.75;1.60;;;1.90;99.90;;;;;;4909842;29;20035;-95
2023/12/04 03:43:53;;;;;;;2.28;1.38;;;1.90;99.90;;;;;;4918587;29;20035;-96
2023/12/04 03:46:19;;;;;;;2.75;1.50;;;1.90;99.90;;;;;;4912502;29;20183;-95
2023/12/04 03:48:45;;;;;;;2.22;1.42;;;1.90;99.90;;;;;;4914094;29;20043;-95
2023/12/04 03:51:11;;;;;;;2.70;1.50;;;1.90;99.90;;;;;;4916131;29;20064;-95
2023/12/04 03:53:37;;;;;;;2.53;1.58;;;1.90;99.90;;;;;;4912650;29;20048;-94
2023/12/04 03:56:03;;;;;;;3.08;1.50;;;1.90;99.90;;;;;;4943786;29;20118;-94
2023/12/04 03:58:28;;;;;;;1.80;1.40;;;1.90;99.90;;;;;;4905178;29;20025;-95
2023/12/04 04:00:54;;;;;;;3.15;1.70;;;1.90;99.90;;;;;;4903259;29;20025;-93
2023/12/04 04:03:20;;;;;;;2.80;1.83;;;1.90;99.90;;;;;;4902501;29;20038;-94
2023/12/04 04:05:45;;;;;;;2.45;1.73;;;2.00;99.90;;;;;;4904497;29;20020;-94
2023/12/04 04:08:11;;;;;;;2.45;1.50;;;2.00;99.90;;;;;;4909654;29;20175;-93
2023/12/04 04:10:37;;;;;;;2.20;1.40;;;2.00;99.90;;;;;;4916977;29;20103;-93
2023/12/04 04:13:02;;;;;;;2.83;1.35;;;2.00;99.90;;;;;;4905046;29;20036;-93
2023/12/04 04:15:28;;;;;;;1.80;1.15;;;2.00;99.90;;;;;;4922564;29;20032;-95
2023/12/04 04:17:54;;;;;;;1.75;1.27;;;1.90;99.90;;;;;;4907863;29;20385;-95
2023/12/04 04:20:20;;;;;;;1.60;1.10;;;2.00;99.90;;;;;;4911434;29;20054;-91
2023/12/04 04:22:48;;;;;;;2.58;1.75;;;2.00;99.90;;;;;;4925757;29;20024;-90
2023/12/04 04:25:14;;;;;;;2.30;1.20;;;2.00;99.90;;;;;;4920491;29;20029;-95
2023/12/04 04:27:39;;;;;;;1.33;1.10;;;2.00;99.90;;;;;;4903773;29;20040;-96
2023/12/04 04:30:06;;;;;;;2.28;1.60;;;2.00;99.90;;;;;;4938084;29;20103;-95
2023/12/04 04:32:31;;;;;;;1.67;0.98;;;2.00;99.90;;;;;;4902830;29;20039;-96
2023/12/04 04:34:57;;;;;;;1.52;1.20;;;2.00;99.90;;;;;;4902397;29;20043;-95
2023/12/04 04:37:23;;;;;;;1.50;1.20;;;2.00;99.90;;;;;;4902427;29;20024;-96
2023/12/04 04:39:48;;;;;;;1.92;1.25;;;2.00;99.90;;;;;;4920898;29;20024;-94
2023/12/04 04:42:14;;;;;;;1.73;1.10;;;2.00;99.90;;;;;;4905328;29;20044;-95
2023/12/04 04:44:40;;;;;;;2.22;1.35;;;2.00;99.90;;;;;;4922204;29;20052;-93
2023/12/04 04:47:06;;;;;;;1.60;1.20;;;2.00;99.90;;;;;;4902506;29;20083;-95
2023/12/04 04:49:32;;;;;;;1.45;1.17;;;2.00;99.90;;;;;;4901897;29;20028;-95
2023/12/04 04:51:58;;;;;;;2.53;1.33;;;2.00;99.90;;;;;;4908240;29;20035;-94
2023/12/04 04:54:25;;;;;;;2.10;1.10;;;2.00;99.90;;;;;;4925593;29;20169;-96
2023/12/04 04:56:53;;;;;;;1.63;1.17;;;2.00;99.90;;;;;;4906299;29;20040;-95
2023/12/04 04:59:19;;;;;;;1.60;1.20;;;2.00;99.90;;;;;;4906055;29;20044;-94
2023/12/04 05:01:45;;;;;;;1.70;1.33;;;2.00;99.90;;;;;;4904932;29;20088;-95
2023/12/04 05:04:12;;;;;;;1.48;1.05;;;2.00;99.90;;;;;;4889953;29;20075;-94
2023/12/04 05:06:38;;;;;;;1.33;1.10;;;2.00;99.90;;;;;;4903587;29;20035;-94
2023/12/04 05:09:04;;;;;;;1.92;1.23;;;2.00;99.90;;;;;;4903354;29;20542;-94
2023/12/04 05:11:30;;;;;;;1.83;1.35;;;2.00;99.90;;;;;;4901658;29;20048;-93
2023/12/04 05:13:56;;;;;;;1.92;1.40;;;2.00;99.90;;;;;;4901620;29;20048;-94
2023/12/04 05:16:21;;;;;;;1.58;1.27;;;2.00;99.90;;;;;;4907275;29;20035;-95
2023/12/04 05:18:47;;;;;;;1.75;1.23;;;2.00;99.90;;;;;;4924061;29;20115;-92
2023/12/04 05:21:14;;;;;;;1.27;1.10;;;2.00;99.90;;;;;;4895043;29;20040;-93
2023/12/04 05:23:43;;;;;;;1.63;1.08;;;2.00;99.90;;;;;;4905738;29;20036;-93
2023/12/04 05:26:10;;;;;;;1.95;1.33;;;2.00;99.90;;;;;;4922676;29;20032;-95
2023/12/04 05:28:35;;;;;;;1.80;1.30;;;2.00;99.90;;;;;;4906717;29;20028;-95
2023/12/04 05:31:01;;;;;;;1.48;1.13;;;2.00;99.90;;;;;;4917340;29;20035;-96
2023/12/04 05:33:27;;;;;;;1.75;0.98;;;2.00;99.90;;;;;;4934127;29;20031;-94
2023/12/04 05:35:55;;;;;;;1.45;1.00;;;2.00;99.90;;;;;;4936223;29;20036;-94
2023/12/04 05:38:26;;;;;;;1.40;1.10;;;2.00;99.90;;;;;;4919811;29;20024;-92
2023/12/04 05:40:55;;;;;;;1.65;1.08;;;2.00;99.90;;;;;;4936470;29;20037;-94
2023/12/04 05:43:20;;;;;;;2.13;1.10;;;2.00;99.90;;;;;;4918860;29;20012;-95
2023/12/04 05:45:46;;;;;;;2.58;1.48;;;2.00;99.90;;;;;;4916593;29;20056;-94
2023/12/04 05:48:12;;;;;;;1.63;1.20;;;2.00;99.90;;;;;;4935602;29;20039;-94
2023/12/04 05:50:37;;;;;;;1.83;1.50;;;2.00;99.90;;;;;;4937476;29;20036;-95
2023/12/04 05:53:03;;;;;;;1.75;1.02;;;2.00;99.90;;;;;;4922424;29;20080;-92
2023/12/04 05:55:29;;;;;;;1.25;1.10;;;2.00;99.90;;;;;;4923806;29;20040;-95
2023/12/04 05:57:54;;;;;;;1.65;1.13;;;2.00;99.90;;;;;;4935094;29;20032;-94
2023/12/04 06:00:21;;;;;;;1.95;1.40;;;2.00;99.90;;;;;;4922959;29;20048;-95
2023/12/04 06:02:47;;;;;;;1.70;1.20;;;2.00;99.90;;;;;;4901873;29;20024;-94
2023/12/04 06:05:13;;;;;;;1.40;1.10;;;2.00;99.90;;;;;;4917976;29;20025;-93
2023/12/04 06:07:39;;;;;;;1.73;0.98;;;2.00;99.90;;;;;;4900450;29;20460;-94
2023/12/04 06:10:05;;;;;;;1.25;1.00;;;2.00;99.90;;;;;;4900205;29;20465;-94
2023/12/04 06:12:31;;;;;;;1.38;1.05;;;2.00;99.90;;;;;;4917206;29;20032;-94
2023/12/04 06:14:58;;;;;;;1.38;1.17;;;2.10;99.90;;;;;;4899998;29;20530;-92
2023/12/04 06:17:24;;;;;;;0.88;0.80;;;2.10;99.90;;;;;;4931948;29;20028;-94
2023/12/04 06:19:50;;;;;;;1.20;1.00;;;2.10;99.90;;;;;;4917386;29;20037;-94
2023/12/04 06:22:18;;;;;;;1.85;1.20;;;2.10;99.90;;;;;;4900647;29;20453;-93
2023/12/04 06:24:44;;;;;;;1.42;1.05;;;2.10;99.90;;;;;;4900821;29;20028;-92
2023/12/04 06:27:16;;;;;;;1.33;1.13;;;2.10;99.90;;;;;;4901739;29;20028;-93
2023/12/04 06:29:42;;;;;;;2.20;1.20;;;2.00;99.90;;;;;;4904608;29;20032;-92
2023/12/04 06:32:08;;;;;;;2.88;1.40;;;2.10;99.90;;;;;;4926272;29;20028;-92
2023/12/04 06:34:34;;;;;;;1.80;1.42;;;2.10;99.90;;;;;;4908930;29;20047;-92
2023/12/04 06:37:02;;;;;;;2.10;1.08;;;2.10;99.90;;;;;;4926095;29;20044;-92
2023/12/04 06:39:32;;;;;;;1.25;1.02;;;2.10;99.90;;;;;;4908996;29;20058;-92
2023/12/04 06:41:59;;;;;;;1.70;1.17;;;2.10;99.90;;;;;;4916751;29;20059;-92
2023/12/04 06:44:25;;;;;;;1.05;0.90;;;2.10;99.90;;;;;;4911898;29;20036;-93
2023/12/04 06:46:52;;;;;;;1.92;1.08;;;2.10;99.90;;;;;;4928883;29;20020;-92
2023/12/04 06:49:18;;;;;;;1.25;1.15;;;2.10;99.90;;;;;;4908079;29;20020;-92
2023/12/04 06:51:53;;;;;;;2.17;1.45;;;2.10;99.90;;;;;;4931695;29;20025;-92
2023/12/04 06:54:18;;;;;;;2.47;1.38;;;2.10;99.90;;;;;;4912230;29;20110;-91
2023/12/04 06:56:50;;;;;;;2.17;1.40;;;2.10;99.90;;;;;;4907858;29;20551;-92
2023/12/04 06:59:18;;;;;;;2.42;1.85;;;2.10;99.90;;;;;;4932554;29;20028;-92
2023/12/04 07:01:43;;;;;;;3.42;1.92;;;2.20;99.90;;;;;;4936874;29;20044;-91
2023/12/04 07:04:09;;;;;;;1.88;1.63;;;2.10;99.90;;;;;;4912350;29;20480;-92
2023/12/04 07:06:39;;;;;;;2.50;1.88;;;2.20;99.90;;;;;;4912061;29;20062;-91
2023/12/04 07:09:07;;;;;;;2.67;1.90;;;2.20;99.90;;;;;;4916222;29;20052;-93
2023/12/04 07:11:33;;;;;;;3.42;2.35;;;2.20;99.90;;;;;;4906112;29;20496;-89
2023/12/04 07:13:59;;;;;;;3.72;2.35;;;2.20;99.90;;;;;;4916367;29;20023;-88
2023/12/04 07:16:25;;;;;;;2.72;2.40;;;2.20;99.90;;;;;;4942008;29;20126;-90
2023/12/04 07:18:50;;;;;;;4.15;2.33;;;2.20;99.90;;;;;;4913947;29;20119;-91
2023/12/04 07:21:16;;;;;;;5.07;2.83;;;2.20;99.90;;;;;;4907952;29;20039;-91
2023/12/04 07:23:42;;;;;;;4.70;2.70;;;2.20;99.90;;;;;;4911151;29;20027;-90
2023/12/04 07:26:08;;;;;;;5.28;3.22;;;2.20;99.90;;;;;;4905805;29;20032;-91
2023/12/04 07:28:34;;;;;;;4.22;2.78;;;2.20;99.90;;;;;;4921064;29;20396;-90
2023/12/04 07:31:03;;;;;;;5.53;2.80;;;2.20;99.90;;;;;;4920330;29;20043;-90
2023/12/04 07:33:29;;;;;;;4.05;2.80;;;2.20;99.90;;;;;;4920097;29;20035;-90
2023/12/04 07:35:55;;;;;;;5.50;3.22;;;2.20;99.90;;;;;;4920136;29;20036;-90
2023/12/04 07:38:21;;;;;;;4.15;2.80;;;2.20;99.90;;;;;;4903046;29;20200;-90
2023/12/04 07:40:46;;;;;;;8.63;4.07;;;2.20;99.90;;;;;;4903320;29;20036;-91
2023/12/04 07:43:14;;;;;;;4.55;2.83;;;2.20;99.90;;;;;;4921124;29;20518;-90
2023/12/04 07:45:40;;;;;;;5.75;3.63;;;2.20;99.90;;;;;;4926801;29;20507;-90
2023/12/04 07:48:06;;;;;;;6.68;3.92;;;2.20;99.90;;;;;;4918254;29;20028;-92
2023/12/04 07:50:31;;;;;;;8.07;4.38;;;2.20;99.90;;;;;;4933382;29;20559;-91
2023/12/04 07:52:57;;;;;;;7.35;3.95;;;2.30;99.90;;;;;;4929258;29;20055;-92
2023/12/04 07:55:23;;;;;;;8.27;4.45;;;2.20;99.90;;;;;;4936038;29;20032;-92
2023/12/04 07:57:50;;;;;;;8.90;4.10;;;2.30;99.90;;;;;;4913731;29;20031;-92
2023/12/04 08:00:17;;;;;;;8.93;4.68;;;2.30;99.90;;;;;;4929391;29;20051;-92
2023/12/04 08:02:45;;;;;;;7.78;4.47;;;2.30;99.90;;;;;;4911601;29;20455;-91
2023/12/04 08:05:12;;;;;;;8.73;4.68;;;2.30;99.90;;;;;;4912458;29;20035;-91
2023/12/04 08:07:38;;;;;;;12.55;4.90;;;2.30;99.90;;;;;;4934286;29;20087;-91
2023/12/04 08:10:04;;;;;;;8.35;4.22;;;2.30;99.90;;;;;;4927700;29;20158;-90
2023/12/04 08:12:30;;;;;;;9.13;4.95;;;2.30;99.90;;;;;;4928773;29;20075;-91
2023/12/04 08:14:55;;;;;;;7.10;4.40;;;2.30;99.90;;;;;;4926124;29;20036;-91
2023/12/04 08:17:21;;;;;;;8.93;4.47;;;2.30;99.90;;;;;;4910743;29;20016;-91
2023/12/04 08:19:46;;;;;;;8.13;4.72;;;2.30;99.90;;;;;;4909941;29;20028;-90
2023/12/04 08:22:12;;;;;;;9.00;5.20;;;2.30;99.90;;;;;;4926436;29;20036;-91
2023/12/04 08:24:38;;;;;;;9.52;4.93;;;2.30;99.90;;;;;;4913270;29;20027;-90
2023/12/04 08:27:03;;;;;;;11.20;5.07;;;2.40;99.90;;;;;;4927289;29;20083;-91
2023/12/04 08:29:29;;;;;;;8.45;4.68;;;2.40;99.90;;;;;;4905197;29;20123;-91
2023/12/04 08:31:55;;;;;;;7.60;4.30;;;2.40;99.90;;;;;;4908479;29;20032;-90
2023/12/04 08:34:20;;;;;;;8.50;4.85;;;2.40;99.90;;;;;;4902873;29;20047;-90
2023/12/04 08:36:46;;;;;;;8.85;4.47;;;2.40;99.90;;;;;;4939200;29;20252;-91
2023/12/04 08:39:12;;;;;;;10.48;4.80;;;2.40;99.90;;;;;;4921860;29;20392;-90
2023/12/04 08:41:38;;;;;;;9.27;4.95;;;2.40;99.90;;;;;;4917538;29;20029;-90
2023/12/04 08:44:03;;;;;;;7.93;4.22;;;2.40;99.90;;;;;;4917763;29;20078;-90
2023/12/04 08:46:29;;;;;;;9.18;4.63;;;2.40;99.90;;;;;;4925147;29;20057;-91
2023/12/04 08:48:55;;;;;;;9.48;4.43;;;2.40;99.90;;;;;;4928528;29;20032;-90
2023/12/04 08:51:21;;;;;;;7.97;4.30;;;2.50;99.90;;;;;;4910284;29;20063;-90
2023/12/04 08:53:46;;;;;;;8.38;4.45;;;2.50;99.90;;;;;;4907628;29;20028;-90
2023/12/04 08:56:12;;;;;;;7.15;3.88;;;2.50;99.90;;;;;;4900864;29;20127;-90
2023/12/04 08:58:38;;;;;;;6.55;3.92;;;2.50;99.90;;;;;;4903059;29;20028;-91
2023/12/04 09:01:04;;;;;;;8.63;4.38;;;2.60;99.90;;;;;;4917047;29;20052;-90
2023/12/04 09:03:31;;;;;;;8.25;4.65;;;2.60;99.90;;;;;;4896130;29;20135;-91
2023/12/04 09:05:57;;;;;;;8.52;4.72;;;2.60;99.90;;;;;;4914904;29;20024;-92
2023/12/04 09:08:26;;;;;;;9.13;4.55;;;2.60;99.90;;;;;;4913488;29;20067;-92
2023/12/04 09:10:52;;;;;;;6.18;4.18;;;2.60;99.90;;;;;;4900825;29;20119;-91
2023/12/04 09:13:17;;;;;;;9.40;4.78;;;2.60;99.90;;;;;;4900992;29;20447;-91
2023/12/04 09:15:43;;;;;;;10.50;4.20;;;2.70;99.90;;;;;;4918439;29;20067;-94
2023/12/04 09:18:11;;;;;;;6.55;4.13;;;2.70;99.90;;;;;;4902279;29;20020;-94
2023/12/04 09:20:37;;;;;;;9.55;4.85;;;2.70;99.90;;;;;;4933167;29;20059;-93
2023/12/04 09:23:03;;;;;;;8.40;4.95;;;2.70;99.90;;;;;;4897820;29;20029;-93
2023/12/04 09:25:29;;;;;;;8.68;4.63;;;2.70;99.90;;;;;;4901554;29;20024;-92
2023/12/04 09:27:55;;;;;;;9.63;5.45;;;2.80;99.90;;;;;;4908768;29;20024;-93
2023/12/04 09:30:20;;;;;;;10.70;5.13;;;2.80;99.90;;;;;;4912697;29;20028;-94
2023/12/04 09:32:46;;;;;;;10.73;5.28;;;2.80;99.90;;;;;;4924092;29;20028;-93
2023/12/04 09:35:12;;;;;;;9.93;5.65;;;2.80;99.90;;;;;;4903387;29;20040;-92
2023/12/04 09:37:39;;;;;;;12.43;5.80;;;2.80;99.90;;;;;;4913158;29;20658;-95
2023/12/04 09:40:05;;;;;;;10.68;5.50;;;2.90;99.90;;;;;;4911369;29;20065;-93
2023/12/04 09:42:32;;;;;;;11.18;6.82;;;2.90;99.90;;;;;;4915430;29;20083;-93
2023/12/04 09:44:58;;;;;;;11.07;5.95;;;2.90;99.90;;;;;;4919865;29;20028;-93
2023/12/04 09:47:26;;;;;;;14.93;7.50;;;2.90;99.90;;;;;;4929791;29;20012;-93
2023/12/04 09:49:53;;;;;;;11.57;6.25;;;2.90;99.90;;;;;;4925392;29;20043;-93
2023/12/04 09:52:20;;;;;;;14.90;7.15;;;2.90;99.90;;;;;;4929830;29;20028;-92
2023/12/04 09:54:46;;;;;;;15.35;6.85;;;2.90;99.90;;;;;;4922744;29;20064;-92
2023/12/04 09:57:12;;;;;;;13.68;6.45;;;2.90;99.90;;;;;;4922035;29;20028;-92
2023/12/04 09:59:39;;;;;;;12.30;6.40;;;3.00;99.90;;;;;;4912253;29;20036;-92
2023/12/04 10:02:06;;;;;;;13.93;6.32;;;3.00;99.90;;;;;;4909988;29;20113;-91
2023/12/04 10:04:33;;;;;;;12.65;6.97;;;3.00;99.90;;;;;;4911982;29;20032;-92
2023/12/04 10:06:59;;;;;;;12.65;8.27;;;3.00;99.90;;;;;;4911634;29;20039;-91
2023/12/04 10:09:25;;;;;;;15.32;6.43;;;3.00;99.90;;;;;;4914001;29;20043;-91
2023/12/04 10:11:55;;;;;;;10.43;6.63;;;3.00;99.90;;;;;;4911310;29;20032;-92
2023/12/04 10:14:22;;;;;;;11.07;6.23;;;3.00;99.90;;;;;;4911473;29;20119;-91
2023/12/04 10:16:53;;;;;;;15.30;7.43;;;3.00;99.90;;;;;;4913415;29;20032;-94
2023/12/04 10:19:31;;;;;;;11.30;5.78;;;3.10;99.90;;;;;;4912548;29;20056;-94
2023/12/04 10:21:59;;;;;;;9.93;5.65;;;3.10;99.90;;;;;;4914533;29;20028;-93
2023/12/04 10:24:33;;;;;;;9.13;5.50;;;3.00;99.90;;;;;;4909853;29;20039;-91
2023/12/04 10:26:59;;;;;;;9.45;5.55;;;3.10;99.90;;;;;;4917948;29;20027;-92
2023/12/04 10:29:39;;;;;;;12.63;5.88;;;3.10;99.90;;;;;;4912794;29;20028;-92
2023/12/04 10:32:05;;;;;;;8.77;5.18;;;3.10;99.90;;;;;;4930149;29;20025;-92
2023/12/04 10:34:33;;;;;;;10.77;5.13;;;3.10;99.90;;;;;;4913914;29;20047;-92
2023/12/04 10:37:03;;;;;;;8.32;5.43;;;3.20;99.90;;;;;;4909012;29;20028;-90
2023/12/04 10:39:29;;;;;;;10.35;5.32;;;3.20;99.90;;;;;;4910934;29;20083;-92
2023/12/04 10:42:03;;;;;;;9.90;5.35;;;3.20;99.90;;;;;;4916873;29;20028;-93
2023/12/04 10:44:30;;;;;;;8.93;5.22;;;3.20;99.90;;;;;;4914583;29;20032;-93
2023/12/04 10:47:01;;;;;;;9.55;5.55;;;3.20;99.90;;;;;;4911133;29;20028;-92
2023/12/04 10:49:31;;;;;;;8.13;4.97;;;3.20;99.90;;;;;;4910544;29;20023;-92
2023/12/04 10:52:01;;;;;;;11.07;5.65;;;3.20;99.90;;;;;;4910949;29;20047;-93
2023/12/04 10:54:27;;;;;;;9.63;4.97;;;3.20;99.90;;;;;;4909579;29;20035;-93
2023/12/04 10:57:03;;;;;;;9.30;5.35;;;3.20;99.90;;;;;;4910552;29;20031;-93
2023/12/04 10:59:36;;;;;;;9.73;6.05;;;3.30;99.90;;;;;;4906874;29;20020;-94
2023/12/04 11:02:05;;;;;;;9.02;5.57;;;3.30;99.90;;;;;;4935706;29;20032;-91
2023/12/04 11:04:34;;;;;;;11.05;5.70;;;3.30;99.90;;;;;;4908941;29;20034;-91
2023/12/04 11:07:04;;;;;;;11.40;6.20;;;3.40;99.90;;;;;;4915141;29;20032;-92
2023/12/04 11:09:34;;;;;;;11.15;6.35;;;3.40;99.90;;;;;;4910311;29;20063;-93
2023/12/04 11:12:04;;;;;;;12.88;6.43;;;3.40;99.90;;;;;;4913951;29;20034;-92
2023/12/04 11:14:37;;;;;;;11.75;6.28;;;3.40;99.90;;;;;;4924677;29;20032;-92
2023/12/04 11:17:06;;;;;;;10.23;6.07;;;3.50;99.90;;;;;;4951692;29;20028;-94
2023/12/04 11:19:55;;;;;;;10.75;5.95;;;3.50;99.90;;;;;;4916201;29;20111;-94
2023/12/04 11:22:22;;;;;;;9.90;6.25;;;3.50;99.90;;;;;;4919011;29;20055;-91
2023/12/04 11:24:50;;;;;;;9.95;6.35;;;3.60;99.90;;;;;;4919475;29;20090;-91
2023/12/04 11:27:20;;;;;;;11.40;6.63;;;3.50;99.90;;;;;;4913503;29;20020;-91
2023/12/04 11:29:47;;;;;;;12.45;6.22;;;3.60;99.90;;;;;;4906106;29;20025;-92
2023/12/04 11:32:16;;;;;;;12.00;7.32;;;3.60;99.90;;;;;;4908017;29;20055;-92
2023/12/04 11:34:49;;;;;;;10.10;6.35;;;3.60;99.90;;;;;;4912779;29;20045;-92
2023/12/04 11:37:15;;;;;;;11.48;6.18;;;3.60;99.90;;;;;;4911365;29;20028;-95
2023/12/04 11:39:41;;;;;;;10.07;6.00;;;3.60;99.90;;;;;;4914720;29;20091;-93
2023/12/04 11:42:07;;;;;;;9.43;6.13;;;3.70;99.90;;;;;;4909540;29;20064;-92
2023/12/04 11:44:33;;;;;;;10.05;5.47;;;3.70;99.90;;;;;;4909507;29;20100;-93
2023/12/04 11:47:08;;;;;;;10.57;5.60;;;3.70;99.90;;;;;;4901648;29;20080;-92
2023/12/04 11:49:35;;;;;;;8.35;4.90;;;3.70;99.90;;;;;;4931782;29;20056;-90
2023/12/04 11:52:04;;;;;;;8.45;5.63;;;3.70;99.90;;;;;;4903297;29;20035;-94
2023/12/04 11:54:57;;;;;;;8.65;5.25;;;3.70;99.90;;;;;;4921556;29;20036;-95
2023/12/04 11:57:25;;;;;;;10.73;5.90;;;3.80;99.90;;;;;;4916208;29;20091;-95
2023/12/04 11:59:52;;;;;;;9.05;5.35;;;3.80;99.90;;;;;;4908057;29;20163;-95
2023/12/04 12:02:18;;;;;;;9.82;4.88;;;3.80;99.90;;;;;;4910468;29;20028;-93
2023/12/04 12:04:45;;;;;;;11.38;6.55;;;3.90;99.90;;;;;;4925163;29;20040;-94
2023/12/04 12:07:11;;;;;;;11.88;7.05;;;3.90;99.90;;;;;;4903777;29;20128;-94
2023/12/04 12:09:37;;;;;;;11.23;6.07;;;3.90;99.90;;;;;;4903468;29;20052;-93
2023/12/04 12:12:04;;;;;;;15.60;7.50;;;3.90;99.90;;;;;;4903364;29;20488;-94
2023/12/04 12:14:31;;;;;;;10.80;6.68;;;3.90;99.90;;;;;;4902052;29;20042;-94
2023/12/04 12:16:59;;;;;;;12.93;7.40;;;4.00;99.90;;;;;;4901641;29;20021;-93
2023/12/04 12:19:25;;;;;;;10.30;6.18;;;4.00;99.90;;;;;;4901434;29;20107;-94
2023/12/04 12:21:51;;;;;;;10.35;6.57;;;4.00;99.90;;;;;;4933324;29;20052;-94
2023/12/04 12:24:20;;;;;;;12.48;7.50;;;4.00;99.90;;;;;;4898139;29;20024;-94
2023/12/04 12:26:46;;;;;;;11.25;7.32;;;4.00;99.90;;;;;;4900950;29;20096;-93
2023/12/04 12:29:12;;;;;;;14.52;7.45;;;4.00;99.90;;;;;;4901377;29;20036;-94
2023/12/04 12:31:38;;;;;;;14.27;7.93;;;4.00;99.90;;;;;;4898639;29;20038;-94
2023/12/04 12:34:04;;;;;;;13.98;8.25;;;4.00;99.90;;;;;;4901867;29;20028;-93
2023/12/04 12:36:32;;;;;;;15.60;9.05;;;4.00;99.90;;;;;;4906015;29;20079;-93
2023/12/04 12:39:00;;;;;;;11.38;7.38;;;4.00;99.90;;;;;;4953876;28;20012;-91
2023/12/04 12:41:26;;;;;;;12.98;7.53;;;4.00;99.90;;;;;;4914541;29;20067;-94
2023/12/04 12:43:55;;;;;;;15.63;8.52;;;4.00;99.90;;;;;;4902351;29;20436;-95
2023/12/04 12:46:22;;;;;;;16.20;8.20;;;4.00;99.90;;;;;;4899987;29;20040;-94
2023/12/04 12:48:48;;;;;;;14.15;7.88;;;4.00;99.90;;;;;;4907471;29;20115;-94
2023/12/04 12:51:13;;;;;;;14.95;8.30;;;3.90;99.90;;;;;;4908516;29;20055;-92
2023/12/04 12:53:40;;;;;;;13.15;7.80;;;3.90;99.90;;;;;;4910657;29;20036;-93